sensor_id;sensor_type;location;lat;lon;timestamp;temperature;humidity
12438;DHT22;6283;51.330;12.374;2022-12-20T00:00:50;5.50;1.00
12438;DHT22;6283;51.330;12.374;2022-12-20T00:03:16;5.50;1.00
12438;DHT22;6283;51.330;12.374;2022-12-20T00:05:42;5.50;1.00
12438;DHT22;6283;51.330;12.374;2022-12-20T00:08:08;5.50;1.00
12438;DHT22;6283;51.330;12.374;2022-12-20T00:10:35;5.50;1.00
12438;DHT22;6283;51.330;12.374;2022-12-20T00:13:01;5.50;1.00
12438;DHT22;6283;51.330;12.374;2022-12-20T00:15:27;5.50;1.00
12438;DHT22;6283;51.330;12.374;2022-12-20T00:17:52;5.50;1.00
12438;DHT22;6283;51.330;12.374;2022-12-20T00:20:18;5.60;1.00
12438;DHT22;6283;51.330;12.374;2022-12-20T00:22:43;5.50;1.00
12438;DHT22;6283;51.330;12.374;2022-12-20T00:25:10;5.50;1.00
12438;DHT22;6283;51.330;12.374;2022-12-20T00:27:36;5.40;1.00
12438;DHT22;6283;51.330;12.374;2022-12-20T00:30:02;5.40;1.00
12438;DHT22;6283;51.330;12.374;2022-12-20T00:32:27;5.50;1.00
12438;DHT22;6283;51.330;12.374;2022-12-20T00:34:53;5.50;1.00
12438;DHT22;6283;51.330;12.374;2022-12-20T00:37:18;5.60;1.00
12438;DHT22;6283;51.330;12.374;2022-12-20T00:39:44;5.50;1.00
12438;DHT22;6283;51.330;12.374;2022-12-20T00:42:09;5.60;1.00
12438;DHT22;6283;51.330;12.374;2022-12-20T00:44:35;5.50;1.00
12438;DHT22;6283;51.330;12.374;2022-12-20T00:47:01;5.50;1.00
12438;DHT22;6283;51.330;12.374;2022-12-20T00:49:26;5.50;1.00
12438;DHT22;6283;51.330;12.374;2022-12-20T00:51:52;5.50;1.00
12438;DHT22;6283;51.330;12.374;2022-12-20T00:54:17;5.20;1.00
12438;DHT22;6283;51.330;12.374;2022-12-20T00:56:43;5.50;1.00
12438;DHT22;6283;51.330;12.374;2022-12-20T00:59:09;5.60;1.00
12438;DHT22;6283;51.330;12.374;2022-12-20T01:01:34;5.30;1.00
12438;DHT22;6283;51.330;12.374;2022-12-20T01:04:00;5.30;1.00
12438;DHT22;6283;51.330;12.374;2022-12-20T01:06:27;5.40;1.00
12438;DHT22;6283;51.330;12.374;2022-12-20T01:08:53;5.40;1.00
12438;DHT22;6283;51.330;12.374;2022-12-20T01:11:25;5.40;1.00
12438;DHT22;6283;51.330;12.374;2022-12-20T01:13:53;5.30;1.00
12438;DHT22;6283;51.330;12.374;2022-12-20T01:16:26;5.40;1.00
12438;DHT22;6283;51.330;12.374;2022-12-20T01:18:52;5.20;1.00
12438;DHT22;6283;51.330;12.374;2022-12-20T01:21:24;5.30;1.00
12438;DHT22;6283;51.330;12.374;2022-12-20T01:23:50;5.50;1.00
12438;DHT22;6283;51.330;12.374;2022-12-20T01:26:19;5.60;1.00
12438;DHT22;6283;51.330;12.374;2022-12-20T01:28:47;5.40;1.00
12438;DHT22;6283;51.330;12.374;2022-12-20T01:31:15;5.60;1.00
12438;DHT22;6283;51.330;12.374;2022-12-20T01:33:42;5.50;1.00
12438;DHT22;6283;51.330;12.374;2022-12-20T01:36:12;5.50;1.00
12438;DHT22;6283;51.330;12.374;2022-12-20T01:38:38;5.50;1.00
12438;DHT22;6283;51.330;12.374;2022-12-20T01:41:04;5.60;1.00
12438;DHT22;6283;51.330;12.374;2022-12-20T01:46:31;5.50;1.00
12438;DHT22;6283;51.330;12.374;2022-12-20T01:51:28;5.60;1.00
12438;DHT22;6283;51.330;12.374;2022-12-20T01:54:00;5.50;1.00
12438;DHT22;6283;51.330;12.374;2022-12-20T01:56:29;5.60;1.00
12438;DHT22;6283;51.330;12.374;2022-12-20T01:58:56;5.80;1.00
12438;DHT22;6283;51.330;12.374;2022-12-20T02:01:23;5.80;1.00
12438;DHT22;6283;51.330;12.374;2022-12-20T02:03:50;5.80;1.00
12438;DHT22;6283;51.330;12.374;2022-12-20T02:06:19;5.80;1.00
12438;DHT22;6283;51.330;12.374;2022-12-20T02:08:47;5.90;1.00
12438;DHT22;6283;51.330;12.374;2022-12-20T02:17:00;6.00;1.00
12438;DHT22;6283;51.330;12.374;2022-12-20T02:31:59;5.80;1.00
12438;DHT22;6283;51.330;12.374;2022-12-20T02:34:28;6.10;1.00
12438;DHT22;6283;51.330;12.374;2022-12-20T02:36:56;6.10;1.00
12438;DHT22;6283;51.330;12.374;2022-12-20T02:39:22;6.10;1.00
12438;DHT22;6283;51.330;12.374;2022-12-20T02:41:52;5.90;1.00
12438;DHT22;6283;51.330;12.374;2022-12-20T02:44:21;6.00;1.00
12438;DHT22;6283;51.330;12.374;2022-12-20T02:47:11;5.90;1.00
12438;DHT22;6283;51.330;12.374;2022-12-20T02:49:39;6.00;1.00
12438;DHT22;6283;51.330;12.374;2022-12-20T02:52:07;5.90;1.00
12438;DHT22;6283;51.330;12.374;2022-12-20T02:54:35;5.80;1.00
12438;DHT22;6283;51.330;12.374;2022-12-20T02:59:57;5.80;1.00
12438;DHT22;6283;51.330;12.374;2022-12-20T03:02:26;5.90;1.00
12438;DHT22;6283;51.330;12.374;2022-12-20T03:04:53;5.80;1.00
12438;DHT22;6283;51.330;12.374;2022-12-20T03:07:20;5.90;1.00
12438;DHT22;6283;51.330;12.374;2022-12-20T03:09:45;5.80;1.00
12438;DHT22;6283;51.330;12.374;2022-12-20T03:12:13;5.80;1.00
12438;DHT22;6283;51.330;12.374;2022-12-20T03:14:40;5.70;1.00
12438;DHT22;6283;51.330;12.374;2022-12-20T03:17:06;5.90;1.00
12438;DHT22;6283;51.330;12.374;2022-12-20T03:19:32;5.70;1.00
12438;DHT22;6283;51.330;12.374;2022-12-20T03:21:58;5.80;1.00
12438;DHT22;6283;51.330;12.374;2022-12-20T03:24:24;5.60;1.00
12438;DHT22;6283;51.330;12.374;2022-12-20T03:26:50;5.60;1.00
12438;DHT22;6283;51.330;12.374;2022-12-20T03:29:15;5.70;1.00
12438;DHT22;6283;51.330;12.374;2022-12-20T03:31:41;5.60;1.00
12438;DHT22;6283;51.330;12.374;2022-12-20T03:34:07;5.60;1.00
12438;DHT22;6283;51.330;12.374;2022-12-20T03:36:32;5.50;1.00
12438;DHT22;6283;51.330;12.374;2022-12-20T03:38:59;5.80;1.00
12438;DHT22;6283;51.330;12.374;2022-12-20T03:41:25;5.60;1.00
12438;DHT22;6283;51.330;12.374;2022-12-20T03:43:51;5.50;1.00
12438;DHT22;6283;51.330;12.374;2022-12-20T03:46:17;5.80;1.00
12438;DHT22;6283;51.330;12.374;2022-12-20T03:48:43;5.60;1.00
12438;DHT22;6283;51.330;12.374;2022-12-20T03:51:09;5.60;1.00
12438;DHT22;6283;51.330;12.374;2022-12-20T03:53:34;5.50;1.00
12438;DHT22;6283;51.330;12.374;2022-12-20T03:56:00;5.70;1.00
12438;DHT22;6283;51.330;12.374;2022-12-20T03:58:26;5.50;1.00
12438;DHT22;6283;51.330;12.374;2022-12-20T04:00:52;5.70;1.00
12438;DHT22;6283;51.330;12.374;2022-12-20T04:03:17;5.60;1.00
12438;DHT22;6283;51.330;12.374;2022-12-20T04:05:43;5.40;1.00
12438;DHT22;6283;51.330;12.374;2022-12-20T04:08:09;5.30;1.00
12438;DHT22;6283;51.330;12.374;2022-12-20T04:10:34;5.60;1.00
12438;DHT22;6283;51.330;12.374;2022-12-20T04:13:23;5.40;1.00
12438;DHT22;6283;51.330;12.374;2022-12-20T04:15:48;5.60;1.00
12438;DHT22;6283;51.330;12.374;2022-12-20T04:18:14;5.60;1.00
12438;DHT22;6283;51.330;12.374;2022-12-20T04:20:39;5.50;1.00
12438;DHT22;6283;51.330;12.374;2022-12-20T04:23:05;5.70;1.00
12438;DHT22;6283;51.330;12.374;2022-12-20T04:25:31;5.70;1.00
12438;DHT22;6283;51.330;12.374;2022-12-20T04:27:56;5.70;1.00
12438;DHT22;6283;51.330;12.374;2022-12-20T04:30:22;5.70;1.00
12438;DHT22;6283;51.330;12.374;2022-12-20T04:32:47;5.90;1.00
12438;DHT22;6283;51.330;12.374;2022-12-20T04:35:13;5.50;1.00
12438;DHT22;6283;51.330;12.374;2022-12-20T04:37:39;5.60;1.00
12438;DHT22;6283;51.330;12.374;2022-12-20T04:40:05;5.70;1.00
12438;DHT22;6283;51.330;12.374;2022-12-20T04:42:31;5.80;1.00
12438;DHT22;6283;51.330;12.374;2022-12-20T04:44:56;5.80;1.00
12438;DHT22;6283;51.330;12.374;2022-12-20T04:47:22;5.70;1.00
12438;DHT22;6283;51.330;12.374;2022-12-20T04:49:47;5.80;1.00
12438;DHT22;6283;51.330;12.374;2022-12-20T04:52:13;5.90;1.00
12438;DHT22;6283;51.330;12.374;2022-12-20T04:54:57;5.70;1.00
12438;DHT22;6283;51.330;12.374;2022-12-20T04:57:23;5.70;1.00
12438;DHT22;6283;51.330;12.374;2022-12-20T04:59:48;6.00;1.00
12438;DHT22;6283;51.330;12.374;2022-12-20T05:02:14;5.90;1.00
12438;DHT22;6283;51.330;12.374;2022-12-20T05:04:39;6.10;1.00
12438;DHT22;6283;51.330;12.374;2022-12-20T05:07:05;6.20;1.00
12438;DHT22;6283;51.330;12.374;2022-12-20T05:09:30;6.00;1.00
12438;DHT22;6283;51.330;12.374;2022-12-20T05:11:56;5.90;1.00
12438;DHT22;6283;51.330;12.374;2022-12-20T05:14:22;5.90;1.00
12438;DHT22;6283;51.330;12.374;2022-12-20T05:16:47;5.90;1.00
12438;DHT22;6283;51.330;12.374;2022-12-20T05:19:13;6.30;1.00
12438;DHT22;6283;51.330;12.374;2022-12-20T05:21:38;6.20;1.00
12438;DHT22;6283;51.330;12.374;2022-12-20T05:24:23;6.30;1.00
12438;DHT22;6283;51.330;12.374;2022-12-20T05:27:07;6.30;1.00
12438;DHT22;6283;51.330;12.374;2022-12-20T05:29:32;6.30;1.00
12438;DHT22;6283;51.330;12.374;2022-12-20T05:31:58;6.40;1.00
12438;DHT22;6283;51.330;12.374;2022-12-20T05:34:23;6.20;1.00
12438;DHT22;6283;51.330;12.374;2022-12-20T05:36:49;6.40;1.00
12438;DHT22;6283;51.330;12.374;2022-12-20T05:39:15;6.40;1.00
12438;DHT22;6283;51.330;12.374;2022-12-20T05:41:40;6.10;1.00
12438;DHT22;6283;51.330;12.374;2022-12-20T05:44:06;6.40;1.00
12438;DHT22;6283;51.330;12.374;2022-12-20T05:46:32;6.50;1.00
12438;DHT22;6283;51.330;12.374;2022-12-20T05:48:58;6.20;1.00
12438;DHT22;6283;51.330;12.374;2022-12-20T05:51:24;6.50;1.00
12438;DHT22;6283;51.330;12.374;2022-12-20T05:53:50;6.40;1.00
12438;DHT22;6283;51.330;12.374;2022-12-20T05:56:15;6.40;1.00
12438;DHT22;6283;51.330;12.374;2022-12-20T05:58:41;6.40;1.00
12438;DHT22;6283;51.330;12.374;2022-12-20T06:01:08;6.40;1.00
12438;DHT22;6283;51.330;12.374;2022-12-20T06:03:35;6.50;1.00
12438;DHT22;6283;51.330;12.374;2022-12-20T06:06:00;6.50;1.00
12438;DHT22;6283;51.330;12.374;2022-12-20T06:08:26;6.50;1.00
12438;DHT22;6283;51.330;12.374;2022-12-20T06:10:52;6.50;1.00
12438;DHT22;6283;51.330;12.374;2022-12-20T06:13:18;6.40;1.00
12438;DHT22;6283;51.330;12.374;2022-12-20T06:15:44;6.30;1.00
12438;DHT22;6283;51.330;12.374;2022-12-20T06:18:10;6.40;1.00
12438;DHT22;6283;51.330;12.374;2022-12-20T06:20:36;6.50;1.00
12438;DHT22;6283;51.330;12.374;2022-12-20T06:23:02;6.50;1.00
12438;DHT22;6283;51.330;12.374;2022-12-20T06:25:28;6.30;1.00
12438;DHT22;6283;51.330;12.374;2022-12-20T06:27:54;6.40;1.00
12438;DHT22;6283;51.330;12.374;2022-12-20T06:30:20;6.50;1.00
12438;DHT22;6283;51.330;12.374;2022-12-20T06:32:46;6.40;1.00
12438;DHT22;6283;51.330;12.374;2022-12-20T06:35:12;6.50;1.00
12438;DHT22;6283;51.330;12.374;2022-12-20T06:37:39;6.60;1.00
12438;DHT22;6283;51.330;12.374;2022-12-20T06:40:08;6.50;1.00
12438;DHT22;6283;51.330;12.374;2022-12-20T06:42:34;6.70;1.00
12438;DHT22;6283;51.330;12.374;2022-12-20T06:45:00;6.80;1.00
12438;DHT22;6283;51.330;12.374;2022-12-20T06:47:25;6.60;1.00
12438;DHT22;6283;51.330;12.374;2022-12-20T06:49:51;6.60;1.00
12438;DHT22;6283;51.330;12.374;2022-12-20T06:52:16;6.40;1.00
12438;DHT22;6283;51.330;12.374;2022-12-20T06:54:42;6.80;1.00
12438;DHT22;6283;51.330;12.374;2022-12-20T06:57:08;6.60;1.00
12438;DHT22;6283;51.330;12.374;2022-12-20T06:59:33;6.50;1.00
12438;DHT22;6283;51.330;12.374;2022-12-20T07:01:59;6.60;1.00
12438;DHT22;6283;51.330;12.374;2022-12-20T07:04:25;6.80;1.00
12438;DHT22;6283;51.330;12.374;2022-12-20T07:06:51;6.60;1.00
12438;DHT22;6283;51.330;12.374;2022-12-20T07:09:16;6.60;1.00
12438;DHT22;6283;51.330;12.374;2022-12-20T07:11:42;6.60;1.00
12438;DHT22;6283;51.330;12.374;2022-12-20T07:14:08;6.80;1.00
12438;DHT22;6283;51.330;12.374;2022-12-20T07:16:34;6.80;1.00
12438;DHT22;6283;51.330;12.374;2022-12-20T07:19:00;6.80;1.00
12438;DHT22;6283;51.330;12.374;2022-12-20T07:21:26;6.80;1.00
12438;DHT22;6283;51.330;12.374;2022-12-20T07:23:53;6.90;1.00
12438;DHT22;6283;51.330;12.374;2022-12-20T07:26:19;6.70;1.00
12438;DHT22;6283;51.330;12.374;2022-12-20T07:28:44;6.60;1.00
12438;DHT22;6283;51.330;12.374;2022-12-20T07:31:10;7.00;1.00
12438;DHT22;6283;51.330;12.374;2022-12-20T07:33:36;7.00;1.00
12438;DHT22;6283;51.330;12.374;2022-12-20T07:36:05;6.90;1.00
12438;DHT22;6283;51.330;12.374;2022-12-20T07:38:32;7.00;1.00
12438;DHT22;6283;51.330;12.374;2022-12-20T07:40:58;6.70;1.00
12438;DHT22;6283;51.330;12.374;2022-12-20T07:43:24;7.00;1.00
12438;DHT22;6283;51.330;12.374;2022-12-20T07:45:54;7.00;1.00
12438;DHT22;6283;51.330;12.374;2022-12-20T07:48:20;6.80;1.00
12438;DHT22;6283;51.330;12.374;2022-12-20T07:50:46;6.80;1.00
12438;DHT22;6283;51.330;12.374;2022-12-20T07:53:12;6.70;1.00
12438;DHT22;6283;51.330;12.374;2022-12-20T07:55:38;6.70;1.00
12438;DHT22;6283;51.330;12.374;2022-12-20T07:58:07;6.90;1.00
12438;DHT22;6283;51.330;12.374;2022-12-20T08:00:35;6.80;1.00
12438;DHT22;6283;51.330;12.374;2022-12-20T08:03:13;6.80;1.00
12438;DHT22;6283;51.330;12.374;2022-12-20T08:05:43;6.90;1.00
12438;DHT22;6283;51.330;12.374;2022-12-20T08:08:11;6.80;1.00
12438;DHT22;6283;51.330;12.374;2022-12-20T08:10:37;6.80;1.00
12438;DHT22;6283;51.330;12.374;2022-12-20T08:13:05;6.90;1.00
12438;DHT22;6283;51.330;12.374;2022-12-20T08:15:32;6.90;1.00
12438;DHT22;6283;51.330;12.374;2022-12-20T08:17:59;6.80;1.00
12438;DHT22;6283;51.330;12.374;2022-12-20T08:20:24;6.80;1.00
12438;DHT22;6283;51.330;12.374;2022-12-20T08:22:50;6.70;1.00
12438;DHT22;6283;51.330;12.374;2022-12-20T08:25:16;6.70;1.00
12438;DHT22;6283;51.330;12.374;2022-12-20T08:27:42;6.80;1.00
12438;DHT22;6283;51.330;12.374;2022-12-20T08:30:08;6.70;1.00
12438;DHT22;6283;51.330;12.374;2022-12-20T08:32:35;6.70;1.00
12438;DHT22;6283;51.330;12.374;2022-12-20T08:35:01;6.80;1.00
12438;DHT22;6283;51.330;12.374;2022-12-20T08:37:26;6.90;1.00
12438;DHT22;6283;51.330;12.374;2022-12-20T08:39:52;6.70;1.00
12438;DHT22;6283;51.330;12.374;2022-12-20T08:42:18;6.60;1.00
12438;DHT22;6283;51.330;12.374;2022-12-20T08:44:43;6.60;1.00
12438;DHT22;6283;51.330;12.374;2022-12-20T08:47:09;6.60;1.00
12438;DHT22;6283;51.330;12.374;2022-12-20T08:49:35;6.70;1.00
12438;DHT22;6283;51.330;12.374;2022-12-20T08:52:01;6.70;1.00
12438;DHT22;6283;51.330;12.374;2022-12-20T08:54:26;6.70;1.00
12438;DHT22;6283;51.330;12.374;2022-12-20T08:56:52;6.60;1.00
12438;DHT22;6283;51.330;12.374;2022-12-20T08:59:18;6.80;1.00
12438;DHT22;6283;51.330;12.374;2022-12-20T09:01:43;6.90;1.00
12438;DHT22;6283;51.330;12.374;2022-12-20T09:04:10;6.90;1.00
12438;DHT22;6283;51.330;12.374;2022-12-20T09:06:36;6.70;1.00
12438;DHT22;6283;51.330;12.374;2022-12-20T09:09:03;6.60;1.00
12438;DHT22;6283;51.330;12.374;2022-12-20T09:11:29;6.90;1.00
12438;DHT22;6283;51.330;12.374;2022-12-20T09:13:56;6.90;1.00
12438;DHT22;6283;51.330;12.374;2022-12-20T09:16:26;6.90;1.00
12438;DHT22;6283;51.330;12.374;2022-12-20T09:18:54;6.70;1.00
12438;DHT22;6283;51.330;12.374;2022-12-20T09:21:20;6.90;1.00
12438;DHT22;6283;51.330;12.374;2022-12-20T09:23:49;6.70;1.00
12438;DHT22;6283;51.330;12.374;2022-12-20T09:26:15;7.00;1.00
12438;DHT22;6283;51.330;12.374;2022-12-20T09:28:42;6.80;1.00
12438;DHT22;6283;51.330;12.374;2022-12-20T09:31:12;6.90;1.00
12438;DHT22;6283;51.330;12.374;2022-12-20T09:33:38;7.10;1.00
12438;DHT22;6283;51.330;12.374;2022-12-20T09:36:05;7.00;1.00
12438;DHT22;6283;51.330;12.374;2022-12-20T09:38:31;7.10;1.00
12438;DHT22;6283;51.330;12.374;2022-12-20T09:41:00;7.20;1.00
12438;DHT22;6283;51.330;12.374;2022-12-20T09:43:27;7.00;1.00
12438;DHT22;6283;51.330;12.374;2022-12-20T09:45:55;7.20;1.00
12438;DHT22;6283;51.330;12.374;2022-12-20T09:48:30;7.40;1.00
12438;DHT22;6283;51.330;12.374;2022-12-20T09:56:34;7.20;1.00
12438;DHT22;6283;51.330;12.374;2022-12-20T09:59:12;7.40;1.00
12438;DHT22;6283;51.330;12.374;2022-12-20T10:01:43;7.50;1.00
12438;DHT22;6283;51.330;12.374;2022-12-20T10:04:28;7.40;1.00
12438;DHT22;6283;51.330;12.374;2022-12-20T10:10:21;7.30;1.00
12438;DHT22;6283;51.330;12.374;2022-12-20T10:13:15;7.30;1.00
12438;DHT22;6283;51.330;12.374;2022-12-20T10:15:51;7.50;1.00
12438;DHT22;6283;51.330;12.374;2022-12-20T10:24:19;7.80;1.00
12438;DHT22;6283;51.330;12.374;2022-12-20T10:26:48;7.70;1.00
12438;DHT22;6283;51.330;12.374;2022-12-20T10:29:15;7.80;1.00
12438;DHT22;6283;51.330;12.374;2022-12-20T10:31:41;7.70;1.00
12438;DHT22;6283;51.330;12.374;2022-12-20T10:34:07;7.80;1.00
12438;DHT22;6283;51.330;12.374;2022-12-20T10:36:35;7.80;1.00
12438;DHT22;6283;51.330;12.374;2022-12-20T10:39:06;7.80;1.00
12438;DHT22;6283;51.330;12.374;2022-12-20T10:41:47;7.70;1.00
12438;DHT22;6283;51.330;12.374;2022-12-20T10:44:27;7.70;1.00
12438;DHT22;6283;51.330;12.374;2022-12-20T10:46:56;7.70;1.00
12438;DHT22;6283;51.330;12.374;2022-12-20T10:49:36;8.00;1.00
12438;DHT22;6283;51.330;12.374;2022-12-20T10:52:11;7.60;1.00
12438;DHT22;6283;51.330;12.374;2022-12-20T10:54:41;7.90;1.00
12438;DHT22;6283;51.330;12.374;2022-12-20T10:57:27;7.80;1.00
12438;DHT22;6283;51.330;12.374;2022-12-20T11:00:01;7.90;1.00
12438;DHT22;6283;51.330;12.374;2022-12-20T11:05:02;7.80;1.00
12438;DHT22;6283;51.330;12.374;2022-12-20T11:07:32;8.00;1.00
12438;DHT22;6283;51.330;12.374;2022-12-20T11:10:00;7.80;1.00
12438;DHT22;6283;51.330;12.374;2022-12-20T11:12:26;8.00;1.00
12438;DHT22;6283;51.330;12.374;2022-12-20T11:15:18;8.20;1.00
12438;DHT22;6283;51.330;12.374;2022-12-20T11:17:46;8.10;1.00
12438;DHT22;6283;51.330;12.374;2022-12-20T11:20:46;8.10;1.00
12438;DHT22;6283;51.330;12.374;2022-12-20T11:36:17;8.10;1.00
12438;DHT22;6283;51.330;12.374;2022-12-20T11:38:52;8.10;1.00
12438;DHT22;6283;51.330;12.374;2022-12-20T11:41:43;8.10;1.00
12438;DHT22;6283;51.330;12.374;2022-12-20T11:46:54;8.00;1.00
12438;DHT22;6283;51.330;12.374;2022-12-20T11:52:49;8.10;1.00
12438;DHT22;6283;51.330;12.374;2022-12-20T11:55:35;8.20;1.00
12438;DHT22;6283;51.330;12.374;2022-12-20T12:00:27;8.10;1.00
12438;DHT22;6283;51.330;12.374;2022-12-20T12:03:04;8.30;1.00
12438;DHT22;6283;51.330;12.374;2022-12-20T12:05:42;8.10;1.00
12438;DHT22;6283;51.330;12.374;2022-12-20T12:08:15;8.20;1.00
12438;DHT22;6283;51.330;12.374;2022-12-20T12:10:52;8.30;1.00
12438;DHT22;6283;51.330;12.374;2022-12-20T12:13:27;8.40;1.00
12438;DHT22;6283;51.330;12.374;2022-12-20T12:16:10;8.20;1.00
12438;DHT22;6283;51.330;12.374;2022-12-20T12:18:38;8.30;1.00
12438;DHT22;6283;51.330;12.374;2022-12-20T12:26:34;8.40;1.00
12438;DHT22;6283;51.330;12.374;2022-12-20T12:48:18;8.50;1.00
12438;DHT22;6283;51.330;12.374;2022-12-20T12:50:50;8.50;1.00
12438;DHT22;6283;51.330;12.374;2022-12-20T12:53:36;8.70;1.00
12438;DHT22;6283;51.330;12.374;2022-12-20T12:56:30;8.40;1.00
12438;DHT22;6283;51.330;12.374;2022-12-20T13:01:49;8.40;1.00
12438;DHT22;6283;51.330;12.374;2022-12-20T13:09:34;8.40;1.00
12438;DHT22;6283;51.330;12.374;2022-12-20T13:19:54;8.40;1.00
12438;DHT22;6283;51.330;12.374;2022-12-20T13:22:24;8.30;1.00
12438;DHT22;6283;51.330;12.374;2022-12-20T13:27:29;8.30;1.00
12438;DHT22;6283;51.330;12.374;2022-12-20T13:29:58;8.30;1.00
12438;DHT22;6283;51.330;12.374;2022-12-20T13:37:57;8.30;1.00
12438;DHT22;6283;51.330;12.374;2022-12-20T13:45:56;8.30;1.00
12438;DHT22;6283;51.330;12.374;2022-12-20T13:49:01;8.10;1.00
12438;DHT22;6283;51.330;12.374;2022-12-20T13:51:28;8.40;1.00
12438;DHT22;6283;51.330;12.374;2022-12-20T13:54:00;8.10;1.00
12438;DHT22;6283;51.330;12.374;2022-12-20T13:58:57;8.40;1.00
12438;DHT22;6283;51.330;12.374;2022-12-20T14:01:24;8.20;1.00
12438;DHT22;6283;51.330;12.374;2022-12-20T14:03:51;8.30;1.00
12438;DHT22;6283;51.330;12.374;2022-12-20T14:06:19;8.10;1.00
12438;DHT22;6283;51.330;12.374;2022-12-20T14:08:48;8.30;1.00
12438;DHT22;6283;51.330;12.374;2022-12-20T14:11:16;8.10;1.00
12438;DHT22;6283;51.330;12.374;2022-12-20T14:13:51;8.10;1.00
12438;DHT22;6283;51.330;12.374;2022-12-20T14:16:19;8.30;1.00
12438;DHT22;6283;51.330;12.374;2022-12-20T14:19:00;8.10;1.00
12438;DHT22;6283;51.330;12.374;2022-12-20T14:21:30;8.00;1.00
12438;DHT22;6283;51.330;12.374;2022-12-20T14:23:57;8.00;1.00
12438;DHT22;6283;51.330;12.374;2022-12-20T14:26:27;7.90;1.00
12438;DHT22;6283;51.330;12.374;2022-12-20T14:28:55;7.80;1.00
12438;DHT22;6283;51.330;12.374;2022-12-20T14:31:26;8.00;1.00
12438;DHT22;6283;51.330;12.374;2022-12-20T14:36:38;8.10;1.00
12438;DHT22;6283;51.330;12.374;2022-12-20T14:41:55;7.90;1.00
12438;DHT22;6283;51.330;12.374;2022-12-20T14:44:23;8.00;1.00
12438;DHT22;6283;51.330;12.374;2022-12-20T14:47:01;8.10;1.00
12438;DHT22;6283;51.330;12.374;2022-12-20T14:49:29;8.00;1.00
12438;DHT22;6283;51.330;12.374;2022-12-20T14:55:12;8.00;1.00
12438;DHT22;6283;51.330;12.374;2022-12-20T14:57:45;8.00;1.00
12438;DHT22;6283;51.330;12.374;2022-12-20T15:08:29;7.90;1.00
12438;DHT22;6283;51.330;12.374;2022-12-20T15:13:37;8.00;1.00
12438;DHT22;6283;51.330;12.374;2022-12-20T15:16:12;8.00;1.00
12438;DHT22;6283;51.330;12.374;2022-12-20T15:18:39;7.70;1.00
12438;DHT22;6283;51.330;12.374;2022-12-20T15:21:17;7.70;1.00
12438;DHT22;6283;51.330;12.374;2022-12-20T15:23:52;7.80;1.00
12438;DHT22;6283;51.330;12.374;2022-12-20T15:26:21;7.80;1.00
12438;DHT22;6283;51.330;12.374;2022-12-20T15:28:47;7.60;1.00
12438;DHT22;6283;51.330;12.374;2022-12-20T15:31:14;7.80;1.00
12438;DHT22;6283;51.330;12.374;2022-12-20T15:33:42;7.80;1.00
12438;DHT22;6283;51.330;12.374;2022-12-20T15:36:19;7.70;1.00
12438;DHT22;6283;51.330;12.374;2022-12-20T15:38:49;7.70;1.00
12438;DHT22;6283;51.330;12.374;2022-12-20T15:43:46;7.50;1.00
12438;DHT22;6283;51.330;12.374;2022-12-20T15:46:12;7.90;1.00
12438;DHT22;6283;51.330;12.374;2022-12-20T15:48:38;7.80;1.00
12438;DHT22;6283;51.330;12.374;2022-12-20T15:51:14;7.60;1.00
12438;DHT22;6283;51.330;12.374;2022-12-20T15:53:40;8.00;1.00
12438;DHT22;6283;51.330;12.374;2022-12-20T15:56:17;7.90;1.00
12438;DHT22;6283;51.330;12.374;2022-12-20T15:58:44;7.90;1.00
12438;DHT22;6283;51.330;12.374;2022-12-20T16:01:17;7.70;1.00
12438;DHT22;6283;51.330;12.374;2022-12-20T16:03:43;7.90;1.00
12438;DHT22;6283;51.330;12.374;2022-12-20T16:06:12;7.70;1.00
12438;DHT22;6283;51.330;12.374;2022-12-20T16:08:38;7.90;1.00
12438;DHT22;6283;51.330;12.374;2022-12-20T16:11:06;7.70;1.00
12438;DHT22;6283;51.330;12.374;2022-12-20T16:13:38;7.70;1.00
12438;DHT22;6283;51.330;12.374;2022-12-20T16:16:04;7.80;1.00
12438;DHT22;6283;51.330;12.374;2022-12-20T16:18:31;7.70;1.00
12438;DHT22;6283;51.330;12.374;2022-12-20T16:20:56;7.80;1.00
12438;DHT22;6283;51.330;12.374;2022-12-20T16:23:22;7.70;1.00
12438;DHT22;6283;51.330;12.374;2022-12-20T16:25:48;7.60;1.00
12438;DHT22;6283;51.330;12.374;2022-12-20T16:28:15;7.50;1.00
12438;DHT22;6283;51.330;12.374;2022-12-20T16:30:41;7.60;1.00
12438;DHT22;6283;51.330;12.374;2022-12-20T16:33:16;7.40;1.00
12438;DHT22;6283;51.330;12.374;2022-12-20T16:35:42;7.70;1.00
12438;DHT22;6283;51.330;12.374;2022-12-20T16:38:08;7.80;1.00
12438;DHT22;6283;51.330;12.374;2022-12-20T16:40:34;7.50;1.00
12438;DHT22;6283;51.330;12.374;2022-12-20T16:43:00;7.80;1.00
12438;DHT22;6283;51.330;12.374;2022-12-20T16:45:29;7.70;1.00
12438;DHT22;6283;51.330;12.374;2022-12-20T16:47:55;7.60;1.00
12438;DHT22;6283;51.330;12.374;2022-12-20T16:50:23;7.60;1.00
12438;DHT22;6283;51.330;12.374;2022-12-20T16:52:50;7.70;1.00
12438;DHT22;6283;51.330;12.374;2022-12-20T16:55:21;7.60;1.00
12438;DHT22;6283;51.330;12.374;2022-12-20T16:57:48;7.60;1.00
12438;DHT22;6283;51.330;12.374;2022-12-20T17:00:22;7.60;1.00
12438;DHT22;6283;51.330;12.374;2022-12-20T17:02:49;7.50;1.00
12438;DHT22;6283;51.330;12.374;2022-12-20T17:05:32;7.40;1.00
12438;DHT22;6283;51.330;12.374;2022-12-20T17:07:59;7.30;1.00
12438;DHT22;6283;51.330;12.374;2022-12-20T17:10:25;7.50;1.00
12438;DHT22;6283;51.330;12.374;2022-12-20T17:12:51;7.30;1.00
12438;DHT22;6283;51.330;12.374;2022-12-20T17:15:29;7.50;1.00
12438;DHT22;6283;51.330;12.374;2022-12-20T17:17:56;7.40;1.00
12438;DHT22;6283;51.330;12.374;2022-12-20T17:20:23;7.40;1.00
12438;DHT22;6283;51.330;12.374;2022-12-20T17:22:53;7.30;1.00
12438;DHT22;6283;51.330;12.374;2022-12-20T17:25:28;7.30;1.00
12438;DHT22;6283;51.330;12.374;2022-12-20T17:27:54;7.30;1.00
12438;DHT22;6283;51.330;12.374;2022-12-20T17:30:21;7.40;1.00
12438;DHT22;6283;51.330;12.374;2022-12-20T17:32:48;7.60;1.00
12438;DHT22;6283;51.330;12.374;2022-12-20T17:35:29;7.60;1.00
12438;DHT22;6283;51.330;12.374;2022-12-20T17:37:56;7.40;1.00
12438;DHT22;6283;51.330;12.374;2022-12-20T17:40:27;7.50;1.00
12438;DHT22;6283;51.330;12.374;2022-12-20T17:42:53;7.50;1.00
12438;DHT22;6283;51.330;12.374;2022-12-20T17:47:51;7.50;1.00
12438;DHT22;6283;51.330;12.374;2022-12-20T17:50:17;7.60;1.00
12438;DHT22;6283;51.330;12.374;2022-12-20T17:52:44;7.30;1.00
12438;DHT22;6283;51.330;12.374;2022-12-20T17:55:16;7.50;1.00
12438;DHT22;6283;51.330;12.374;2022-12-20T17:57:41;7.60;1.00
12438;DHT22;6283;51.330;12.374;2022-12-20T18:00:15;7.50;1.00
12438;DHT22;6283;51.330;12.374;2022-12-20T18:02:41;7.50;1.00
12438;DHT22;6283;51.330;12.374;2022-12-20T18:05:09;7.50;1.00
12438;DHT22;6283;51.330;12.374;2022-12-20T18:07:34;7.50;1.00
12438;DHT22;6283;51.330;12.374;2022-12-20T18:10:01;7.40;1.00
12438;DHT22;6283;51.330;12.374;2022-12-20T18:12:26;7.70;1.00
12438;DHT22;6283;51.330;12.374;2022-12-20T18:14:52;7.60;1.00
12438;DHT22;6283;51.330;12.374;2022-12-20T18:17:18;7.80;1.00
12438;DHT22;6283;51.330;12.374;2022-12-20T18:19:43;7.60;1.00
12438;DHT22;6283;51.330;12.374;2022-12-20T18:22:09;7.80;1.00
12438;DHT22;6283;51.330;12.374;2022-12-20T18:24:35;7.70;1.00
12438;DHT22;6283;51.330;12.374;2022-12-20T18:27:01;7.60;1.00
12438;DHT22;6283;51.330;12.374;2022-12-20T18:29:26;7.70;1.00
12438;DHT22;6283;51.330;12.374;2022-12-20T18:31:52;7.40;1.00
12438;DHT22;6283;51.330;12.374;2022-12-20T18:34:18;7.60;1.00
12438;DHT22;6283;51.330;12.374;2022-12-20T18:36:44;7.50;1.00